createdAt,value
2018-11-22T00:02:25.753Z,18.87
2018-11-22T00:04:52.996Z,16.20
2018-11-22T00:07:20.524Z,18.50
2018-11-22T00:09:47.883Z,19.27
2018-11-22T00:12:15.034Z,17.83
2018-11-22T00:14:42.207Z,17.63
2018-11-22T00:17:09.684Z,18.27
2018-11-22T00:19:37.160Z,17.57
2018-11-22T00:22:04.343Z,19.50
2018-11-22T00:24:32.017Z,18.70
2018-11-22T00:26:59.245Z,16.67
2018-11-22T00:29:26.783Z,20.90
2018-11-22T00:31:54.491Z,17.10
2018-11-22T00:34:21.650Z,17.97
2018-11-22T00:36:48.855Z,18.20
2018-11-22T00:39:16.226Z,18.13
2018-11-22T00:41:43.379Z,18.07
2018-11-22T00:44:10.544Z,19.37
2018-11-22T00:46:37.799Z,18.33
2018-11-22T00:49:04.999Z,16.07
2018-11-22T00:51:32.410Z,16.73
2018-11-22T00:54:00.029Z,18.37
2018-11-22T00:56:27.642Z,18.63
2018-11-22T00:58:55.129Z,18.37
2018-11-22T01:01:23.380Z,16.60
2018-11-22T01:03:51.344Z,17.73
2018-11-22T01:06:18.772Z,20.10
2018-11-22T01:08:45.966Z,19.47
2018-11-22T01:11:13.196Z,17.70
2018-11-22T01:13:40.389Z,21.70
2018-11-22T01:16:08.110Z,22.20
2018-11-22T01:18:35.260Z,20.57
2018-11-22T01:21:02.390Z,18.87
2018-11-22T01:23:29.957Z,23.33
2018-11-22T01:25:57.358Z,15.23
2018-11-22T01:28:24.858Z,22.20
2018-11-22T01:30:52.500Z,21.40
2018-11-22T01:33:19.912Z,19.17
2018-11-22T01:35:47.140Z,17.63
2018-11-22T01:38:15.031Z,19.70
2018-11-22T01:40:42.298Z,16.07
2018-11-22T01:43:09.738Z,18.40
2018-11-22T01:45:37.172Z,19.57
2018-11-22T01:48:04.599Z,16.50
2018-11-22T01:50:31.848Z,17.47
2018-11-22T01:52:59.185Z,20.90
2018-11-22T01:55:26.352Z,18.73
2018-11-22T01:57:53.527Z,18.23
2018-11-22T02:00:23.511Z,18.03
2018-11-22T02:02:50.707Z,18.90
2018-11-22T02:05:19.055Z,17.10
2018-11-22T02:07:46.296Z,17.40
2018-11-22T02:10:14.539Z,16.37
2018-11-22T02:12:41.680Z,20.93
2018-11-22T02:15:20.779Z,18.30
2018-11-22T02:17:48.250Z,16.80
2018-11-22T02:20:19.389Z,19.20
2018-11-22T02:22:46.780Z,22.00
2018-11-22T02:25:15.541Z,17.37
2018-11-22T02:27:43.055Z,18.50
2018-11-22T02:30:13.327Z,22.13
2018-11-22T02:32:40.561Z,18.50
2018-11-22T02:35:08.528Z,20.57
2018-11-22T02:37:35.901Z,17.57
2018-11-22T02:40:03.352Z,18.43
2018-11-22T02:42:30.773Z,21.07
2018-11-22T02:44:57.999Z,22.47
2018-11-22T02:47:25.465Z,19.60
2018-11-22T02:49:53.302Z,21.33
2018-11-22T02:52:21.165Z,21.83
2018-11-22T02:54:48.369Z,24.93
2018-11-22T02:57:15.926Z,19.47
2018-11-22T02:59:43.337Z,22.03
2018-11-22T03:02:10.844Z,21.40
2018-11-22T03:04:38.130Z,20.73
2018-11-22T03:07:05.403Z,23.47
2018-11-22T03:09:32.583Z,21.57
2018-11-22T03:12:00.224Z,20.03
2018-11-22T03:14:27.403Z,19.30
2018-11-22T03:16:54.604Z,21.70
2018-11-22T03:19:21.955Z,20.73
2018-11-22T03:21:49.359Z,22.10
2018-11-22T03:24:16.576Z,21.03
2018-11-22T03:26:44.217Z,19.97
2018-11-22T03:29:11.350Z,22.03
2018-11-22T03:31:38.903Z,20.07
2018-11-22T03:34:06.331Z,20.30
2018-11-22T03:36:33.535Z,20.60
2018-11-22T03:39:00.777Z,19.27
2018-11-22T03:41:28.027Z,20.13
2018-11-22T03:43:55.539Z,20.83
2018-11-22T03:46:22.771Z,18.40
2018-11-22T12:17:23.522Z,24.13
2018-11-22T12:19:51.813Z,24.90
2018-11-22T12:22:19.782Z,26.67
2018-11-22T12:24:47.369Z,23.57
2018-11-22T12:27:14.937Z,24.80
2018-11-22T12:29:42.786Z,22.73
2018-11-22T12:32:11.925Z,24.47
2018-11-22T12:34:45.594Z,22.33
2018-11-22T12:37:18.980Z,23.10
2018-11-22T12:39:46.963Z,24.57
2018-11-22T12:42:14.533Z,23.00
2018-11-22T12:44:42.340Z,23.83
2018-11-22T12:47:09.891Z,25.57
2018-11-22T12:49:37.380Z,24.80
2018-11-22T12:52:05.602Z,23.00
2018-11-22T12:54:35.189Z,23.57
2018-11-22T12:57:02.800Z,23.50
2018-11-22T12:59:30.912Z,24.33
2018-11-22T13:01:58.482Z,27.33
2018-11-22T13:04:25.993Z,25.60
2018-11-22T13:06:54.085Z,25.13
2018-11-22T13:09:21.665Z,24.17
2018-11-22T13:11:49.250Z,22.27
2018-11-22T13:14:17.259Z,21.63
2018-11-22T13:16:44.769Z,25.87
2018-11-22T13:19:12.393Z,23.77
2018-11-22T13:21:40.175Z,21.07
2018-11-22T13:24:07.778Z,23.13
2018-11-22T13:26:35.609Z,23.93
2018-11-22T13:29:03.284Z,23.43
2018-11-22T13:31:30.899Z,21.87
2018-11-22T13:33:58.723Z,20.47
2018-11-22T13:36:26.283Z,23.57
2018-11-22T13:38:54.303Z,23.67
2018-11-22T13:41:22.226Z,22.47
2018-11-22T13:43:50.451Z,24.17
2018-11-22T13:46:18.002Z,23.37
2018-11-22T13:48:45.502Z,23.00
2018-11-22T13:51:13.046Z,21.37
2018-11-22T13:53:40.870Z,23.47
2018-11-22T13:56:08.407Z,21.93
2018-11-22T13:58:35.966Z,24.13
2018-11-22T14:01:03.597Z,25.83
2018-11-22T14:03:31.198Z,22.97
2018-11-22T14:05:58.888Z,24.53
2018-11-22T14:08:26.809Z,22.90
2018-11-22T14:10:58.455Z,23.63
2018-11-22T14:13:21.999Z,22.20
2018-11-22T14:15:49.744Z,19.87
2018-11-22T14:18:17.320Z,22.07
2018-11-22T14:20:44.899Z,24.43
2018-11-22T14:23:12.679Z,27.67
2018-11-22T14:25:40.238Z,20.70
2018-11-22T14:28:08.130Z,22.90
2018-11-22T14:30:36.067Z,24.37
2018-11-22T14:33:03.845Z,23.93
2018-11-22T14:35:32.068Z,23.77
2018-11-22T14:37:59.660Z,21.63
2018-11-22T14:40:28.711Z,23.27
2018-11-22T14:42:57.113Z,24.50
2018-11-22T14:45:25.224Z,23.87
2018-11-22T14:47:53.912Z,24.97
2018-11-22T14:50:44.255Z,21.63
2018-11-22T14:53:16.382Z,20.53
2018-11-22T14:55:44.294Z,24.43
2018-11-22T14:58:11.953Z,20.63
2018-11-22T15:00:39.717Z,22.30
2018-11-22T15:03:07.539Z,22.87
2018-11-22T15:05:35.171Z,23.20
2018-11-22T15:08:04.736Z,26.40
2018-11-22T15:10:32.586Z,26.13
2018-11-22T15:13:00.182Z,26.10
2018-11-22T15:15:28.854Z,27.57
2018-11-22T15:17:56.447Z,27.47
2018-11-22T15:20:24.229Z,25.83
2018-11-22T15:22:52.657Z,26.27
2018-11-22T15:25:21.513Z,25.73
2018-11-22T15:27:49.225Z,25.67
2018-11-22T15:30:20.298Z,25.50
2018-11-22T15:32:48.028Z,26.37
2018-11-22T15:35:16.858Z,23.43
2018-11-22T15:37:44.767Z,28.00
2018-11-22T15:40:17.187Z,28.03
2018-11-22T15:42:45.665Z,27.63
2018-11-22T15:45:14.753Z,26.67
2018-11-22T15:47:42.897Z,30.77
2018-11-22T15:50:14.432Z,29.53
2018-11-22T15:52:42.633Z,26.90
2018-11-22T15:55:10.805Z,31.27
2018-11-22T15:57:39.783Z,29.43
2018-11-22T16:00:11.933Z,32.27
2018-11-22T16:02:39.515Z,31.67
2018-11-22T16:05:08.091Z,30.83
2018-11-22T16:07:44.830Z,29.97
2018-11-22T16:10:26.306Z,32.80
2018-11-22T16:12:51.899Z,28.70
2018-11-22T16:15:24.107Z,31.63
2018-11-22T16:17:58.118Z,30.67
2018-11-22T16:20:32.511Z,29.50
2018-11-22T16:23:08.135Z,31.37
2018-11-22T16:25:37.055Z,32.27
2018-11-22T16:28:43.355Z,31.10
2018-11-22T16:31:49.382Z,31.10
2018-11-22T16:34:17.199Z,27.80
2018-11-22T16:36:44.864Z,30.03
2018-11-22T16:39:12.425Z,29.77
2018-11-22T16:41:40.070Z,31.10
2018-11-22T16:44:07.738Z,26.53
2018-11-22T16:46:36.354Z,32.50
2018-11-22T16:49:03.885Z,31.53
2018-11-22T16:51:31.470Z,30.17
2018-11-22T16:53:59.099Z,29.23
2018-11-22T16:56:27.067Z,33.60
2018-11-22T16:58:54.653Z,29.17
2018-11-22T17:01:27.662Z,26.20
2018-11-22T17:03:50.049Z,31.67
2018-11-22T17:06:17.743Z,29.37
2018-11-22T17:08:45.302Z,29.77
2018-11-22T17:11:13.175Z,28.50
2018-11-22T17:13:40.769Z,31.13
2018-11-22T17:16:08.341Z,30.10
2018-11-22T17:18:35.967Z,31.53
2018-11-22T17:21:04.126Z,33.33
2018-11-22T17:23:31.735Z,29.60
2018-11-22T17:25:59.329Z,33.10
2018-11-22T17:28:27.115Z,31.83
2018-11-22T17:30:54.687Z,32.10
2018-11-22T17:33:22.853Z,30.57
2018-11-22T17:35:50.757Z,31.27
2018-11-22T17:38:18.347Z,32.73
2018-11-22T17:40:47.268Z,30.20
2018-11-22T17:43:15.377Z,33.47
2018-11-22T17:45:44.338Z,28.30
2018-11-22T17:48:12.693Z,26.87
2018-11-22T17:50:42.064Z,32.17
2018-11-22T17:53:10.759Z,29.87
2018-11-22T17:55:38.372Z,32.60
2018-11-22T17:58:06.050Z,32.10
2018-11-22T18:00:35.907Z,28.57
2018-11-22T18:03:04.312Z,32.10
2018-11-22T18:05:32.885Z,28.07
2018-11-22T18:08:01.402Z,30.57
2018-11-22T18:10:30.723Z,28.70
2018-11-22T18:12:59.079Z,27.73
2018-11-22T18:15:27.340Z,29.13
2018-11-22T18:17:55.513Z,28.30
2018-11-22T18:20:24.513Z,27.50
2018-11-22T18:22:53.175Z,26.37
2018-11-22T18:25:21.979Z,30.43
2018-11-22T18:27:49.655Z,24.37
2018-11-22T18:30:18.630Z,26.53
2018-11-22T18:32:47.889Z,28.53
2018-11-22T18:35:16.067Z,29.10
2018-11-22T18:37:43.886Z,29.60
2018-11-22T18:40:14.926Z,29.30
2018-11-22T18:42:43.260Z,30.73
2018-11-22T18:45:13.137Z,31.43
2018-11-22T18:47:41.237Z,30.20
2018-11-22T18:50:15.586Z,26.33
2018-11-22T18:52:41.855Z,30.53
2018-11-22T18:55:09.835Z,34.37
2018-11-22T18:57:37.876Z,28.40
2018-11-22T19:00:14.183Z,25.77
2018-11-22T19:02:42.398Z,32.13
2018-11-22T19:05:11.269Z,28.83
2018-11-22T19:07:39.330Z,28.33
2018-11-22T19:10:13.393Z,26.87
2018-11-22T19:12:41.209Z,27.77
2018-11-22T19:15:11.026Z,32.63
2018-11-22T19:17:38.774Z,27.00
2018-11-22T19:20:12.954Z,32.23
2018-11-22T19:22:41.006Z,28.93
2018-11-22T19:25:08.917Z,28.00
2018-11-22T19:27:37.089Z,27.10
2018-11-22T19:30:08.885Z,29.33
2018-11-22T19:32:37.023Z,27.30
2018-11-22T19:35:06.727Z,26.80
2018-11-22T19:37:34.483Z,26.30
2018-11-22T19:40:02.391Z,26.93
2018-11-22T19:42:30.010Z,27.00
2018-11-22T19:44:57.584Z,28.60
2018-11-22T19:47:25.338Z,24.77
2018-11-22T19:49:53.166Z,25.73
2018-11-22T19:52:20.940Z,28.50
2018-11-22T19:54:48.616Z,24.57
2018-11-22T19:57:16.186Z,24.97
2018-11-22T19:59:44.117Z,29.43
2018-11-22T20:02:11.668Z,28.67
2018-11-22T20:04:39.666Z,27.90
2018-11-22T20:07:07.563Z,27.30
2018-11-22T20:09:35.213Z,29.90
2018-11-22T20:12:02.831Z,25.43
2018-11-22T20:14:31.265Z,27.23
2018-11-22T20:16:59.190Z,27.50
2018-11-22T20:19:26.863Z,24.90
2018-11-22T20:21:55.016Z,27.50
2018-11-22T20:24:22.639Z,26.30
2018-11-22T20:26:50.236Z,25.33
2018-11-22T20:29:18.273Z,26.77
2018-11-22T20:31:46.515Z,26.33
2018-11-22T20:34:14.390Z,27.43
2018-11-22T20:36:42.224Z,27.93
2018-11-22T20:39:11.166Z,27.60
2018-11-22T20:41:39.140Z,27.10
2018-11-22T20:44:07.661Z,24.70
2018-11-22T20:46:35.381Z,25.57
2018-11-22T20:49:02.925Z,24.50
2018-11-22T20:51:30.534Z,25.60
2018-11-22T20:53:58.114Z,28.60
2018-11-22T20:56:25.854Z,26.93
2018-11-22T20:58:53.683Z,26.63
2018-11-22T21:01:21.258Z,25.20
2018-11-22T21:03:49.112Z,27.33
2018-11-22T21:06:16.650Z,26.33
2018-11-22T21:08:48.586Z,24.60
2018-11-22T21:11:12.117Z,26.77
2018-11-22T21:13:39.751Z,25.40
2018-11-22T21:16:07.303Z,27.07
2018-11-22T21:18:35.223Z,24.67
2018-11-22T21:21:02.814Z,24.60
2018-11-22T21:23:30.374Z,26.40
2018-11-22T21:25:58.431Z,28.77
2018-11-22T21:28:26.050Z,25.53
2018-11-22T21:30:53.606Z,26.90
2018-11-22T21:33:21.446Z,27.63
2018-11-22T21:35:49.023Z,27.30
2018-11-22T21:38:16.680Z,27.10
2018-11-22T21:40:44.331Z,24.97
2018-11-22T21:43:11.910Z,27.40
2018-11-22T21:45:39.498Z,24.27
2018-11-22T21:48:07.162Z,24.77
2018-11-22T21:50:34.812Z,26.10
2018-11-22T21:53:02.401Z,24.90
2018-11-22T21:55:30.766Z,25.17
2018-11-22T21:57:59.477Z,26.43
2018-11-22T22:00:35.917Z,26.77
2018-11-22T22:03:05.413Z,26.83
2018-11-22T22:06:10.958Z,25.50
2018-11-22T22:08:39.659Z,28.40
2018-11-22T22:11:21.058Z,24.90
2018-11-22T22:14:10.376Z,26.73
2018-11-22T22:16:38.317Z,26.50
2018-11-22T22:19:07.862Z,24.60
2018-11-22T22:21:35.742Z,26.60
2018-11-22T22:24:04.200Z,28.77
2018-11-22T22:26:31.865Z,24.60
2018-11-22T22:28:59.750Z,28.93
2018-11-22T22:31:27.341Z,25.97
2018-11-22T22:33:54.871Z,24.90
2018-11-22T22:36:22.538Z,26.70
2018-11-22T22:38:50.091Z,28.13
2018-11-22T22:41:17.616Z,25.63
2018-11-22T22:43:45.243Z,25.23
2018-11-22T22:46:12.793Z,33.90
2018-11-22T22:48:40.673Z,31.17
2018-11-22T22:51:08.739Z,29.60
2018-11-22T22:53:36.320Z,29.73
2018-11-22T22:56:04.205Z,25.83
2018-11-22T22:58:31.953Z,29.47
2018-11-22T23:01:01.233Z,28.73
2018-11-22T23:03:29.555Z,31.07
2018-11-22T23:05:57.644Z,26.47
2018-11-22T23:08:25.234Z,27.80
2018-11-22T23:10:52.822Z,27.77
2018-11-22T23:13:20.629Z,26.30
2018-11-22T23:15:48.174Z,25.77
2018-11-22T23:18:15.754Z,27.77
2018-11-22T23:20:43.585Z,27.60
2018-11-22T23:23:11.219Z,28.97
2018-11-22T23:25:38.795Z,28.50
2018-11-22T23:28:06.537Z,27.70
2018-11-22T23:30:34.880Z,29.37
2018-11-22T23:33:03.842Z,26.33
2018-11-22T23:35:33.704Z,22.97
2018-11-22T23:38:01.244Z,29.10
2018-11-22T23:40:29.833Z,25.07
2018-11-22T23:42:57.965Z,29.73
2018-11-22T23:45:26.969Z,23.80
2018-11-22T23:47:54.558Z,28.37
2018-11-22T23:50:26.829Z,25.00
2018-11-22T23:52:55.578Z,25.07
2018-11-22T23:55:23.278Z,27.50
2018-11-22T23:57:51.129Z,25.80
